Time;durP1;ratioP1;P1;durP2;ratioP2;P2;SDS_P1;SDS_P2;PMS_P1;PMS_P2;Temp;Humidity;BMP_temperature;BMP_pressure;BME280_temperature;BME280_humidity;BME280_pressure;Samples;Min_cycle;Max_cycle;Signal;HPM_P1;HPM_P2
2022/03/16 00:01:55;;;;;;;69.47;44.20;;;4.70;99.90;;;;;;5095550;28;20199;-74
2022/03/16 00:04:21;;;;;;;74.90;44.57;;;4.70;99.90;;;;;;5096121;28;20200;-73
2022/03/16 00:06:48;;;;;;;69.17;43.13;;;4.70;99.90;;;;;;5095209;28;20577;-73
2022/03/16 00:09:15;;;;;;;71.80;44.27;;;4.70;99.90;;;;;;5095330;28;20716;-75
2022/03/16 00:11:42;;;;;;;71.87;43.10;;;4.70;99.90;;;;;;5095037;28;20242;-74
2022/03/16 00:14:09;;;;;;;66.60;43.10;;;4.60;99.90;;;;;;5094833;28;20197;-74
2022/03/16 00:16:35;;;;;;;65.77;41.97;;;4.60;99.90;;;;;;5095123;28;20205;-74
2022/03/16 00:19:03;;;;;;;62.17;40.40;;;4.70;99.90;;;;;;5094959;28;20222;-73
2022/03/16 00:21:30;;;;;;;62.97;40.70;;;4.80;99.90;;;;;;5094623;28;20230;-74
2022/03/16 00:23:57;;;;;;;53.30;36.47;;;4.80;99.90;;;;;;5095187;28;20200;-74
2022/03/16 00:26:23;;;;;;;54.57;36.87;;;4.90;99.90;;;;;;5095386;28;20249;-74
2022/03/16 00:28:50;;;;;;;54.13;36.20;;;5.00;99.90;;;;;;5094907;28;20196;-75
2022/03/16 00:31:17;;;;;;;49.60;35.03;;;5.00;99.90;;;;;;5095115;28;20242;-74
2022/03/16 00:33:43;;;;;;;50.23;34.27;;;5.10;99.90;;;;;;5094933;28;20224;-75
2022/03/16 00:36:11;;;;;;;50.50;34.13;;;5.10;99.90;;;;;;5095241;28;20246;-74
2022/03/16 00:38:38;;;;;;;50.40;33.83;;;5.10;99.90;;;;;;5093864;28;20708;-74
2022/03/16 00:41:05;;;;;;;48.13;32.87;;;5.10;99.90;;;;;;5094695;28;20293;-74
2022/03/16 00:43:33;;;;;;;45.67;32.50;;;5.10;99.90;;;;;;5094806;28;20210;-75
2022/03/16 00:46:00;;;;;;;40.50;29.40;;;5.10;99.90;;;;;;5095343;28;20196;-75
2022/03/16 00:48:27;;;;;;;41.60;31.57;;;5.10;99.90;;;;;;5095257;28;20246;-75
2022/03/16 00:50:54;;;;;;;40.27;31.37;;;5.10;99.90;;;;;;5094566;28;20227;-75
2022/03/16 00:53:22;;;;;;;40.60;30.23;;;5.10;99.90;;;;;;5094587;28;20228;-75
2022/03/16 00:55:48;;;;;;;41.90;30.23;;;5.10;99.90;;;;;;5094467;28;20537;-74
2022/03/16 00:58:16;;;;;;;42.60;30.63;;;5.10;99.90;;;;;;5095522;28;20248;-74
2022/03/16 01:00:43;;;;;;;39.63;29.57;;;5.10;99.90;;;;;;5098070;28;20219;-75
2022/03/16 01:03:09;;;;;;;36.23;28.03;;;5.10;99.90;;;;;;5096292;28;20728;-75
2022/03/16 01:05:36;;;;;;;38.37;29.47;;;5.00;99.90;;;;;;5101216;28;20257;-75
2022/03/16 01:08:02;;;;;;;38.63;29.47;;;5.10;99.90;;;;;;5101266;28;20215;-74
2022/03/16 01:10:30;;;;;;;37.97;28.87;;;5.10;99.90;;;;;;5102513;28;20251;-75
2022/03/16 01:12:57;;;;;;;36.73;27.93;;;5.10;99.90;;;;;;5103741;28;20293;-74
2022/03/16 01:15:24;;;;;;;33.93;27.13;;;5.00;99.90;;;;;;5105839;28;20274;-75
2022/03/16 01:17:52;;;;;;;36.03;28.17;;;5.00;99.90;;;;;;5104668;28;20196;-75
2022/03/16 01:20:19;;;;;;;35.30;28.40;;;5.00;99.90;;;;;;5103284;28;20192;-74
2022/03/16 01:22:46;;;;;;;35.83;26.93;;;5.00;99.90;;;;;;5099097;28;20266;-74
2022/03/16 01:25:12;;;;;;;34.17;27.10;;;5.00;99.90;;;;;;5096195;28;20204;-74
2022/03/16 01:27:40;;;;;;;33.23;26.43;;;4.90;99.90;;;;;;5096279;28;20196;-74
2022/03/16 01:30:08;;;;;;;34.63;26.60;;;4.90;99.90;;;;;;5095711;28;20600;-74
2022/03/16 01:32:35;;;;;;;38.73;29.80;;;4.90;99.90;;;;;;5098799;28;20680;-75
2022/03/16 01:35:02;;;;;;;35.83;28.37;;;4.90;99.90;;;;;;5094693;28;20590;-74
2022/03/16 01:37:30;;;;;;;39.87;28.73;;;4.90;99.90;;;;;;5094958;28;20196;-74
2022/03/16 01:39:57;;;;;;;38.23;29.93;;;4.90;99.90;;;;;;5094607;28;20323;-75
2022/03/16 01:42:23;;;;;;;37.40;28.40;;;4.90;99.90;;;;;;5098229;28;20196;-75
2022/03/16 01:44:53;;;;;;;34.87;28.27;;;5.00;99.90;;;;;;5096220;28;20218;-75
2022/03/16 01:47:22;;;;;;;36.23;27.53;;;5.00;99.90;;;;;;5100489;28;20643;-75
2022/03/16 01:49:49;;;;;;;35.67;29.20;;;5.00;99.90;;;;;;5099918;28;20196;-75
2022/03/16 01:52:19;;;;;;;36.47;28.10;;;5.00;99.90;;;;;;5100311;28;20223;-75
2022/03/16 01:54:46;;;;;;;34.00;27.60;;;5.00;99.90;;;;;;5105779;28;20203;-75
2022/03/16 01:57:13;;;;;;;39.43;29.33;;;5.10;99.90;;;;;;5103000;28;20222;-75
2022/03/16 01:59:41;;;;;;;37.23;28.70;;;5.00;99.90;;;;;;5098711;28;20196;-75
2022/03/16 02:02:10;;;;;;;36.57;28.40;;;5.00;99.90;;;;;;5103503;28;20199;-74
2022/03/16 02:04:37;;;;;;;37.53;29.33;;;5.00;99.90;;;;;;5104215;28;20192;-75
2022/03/16 02:07:04;;;;;;;39.27;29.80;;;5.10;99.90;;;;;;5100635;28;20208;-75
2022/03/16 02:09:31;;;;;;;37.27;29.23;;;5.10;99.90;;;;;;5099344;28;20257;-76
2022/03/16 02:11:58;;;;;;;44.03;30.73;;;5.00;99.90;;;;;;5100178;28;20222;-75
2022/03/16 02:14:24;;;;;;;37.77;29.50;;;5.10;99.90;;;;;;5107110;28;20204;-75
2022/03/16 02:16:52;;;;;;;42.27;31.70;;;5.10;99.90;;;;;;5105172;28;20196;-76
2022/03/16 02:19:20;;;;;;;44.80;31.90;;;5.10;99.90;;;;;;5103950;28;20200;-75
2022/03/16 02:21:49;;;;;;;41.93;31.77;;;5.10;99.90;;;;;;5110850;28;20207;-75
2022/03/16 02:24:17;;;;;;;42.03;31.27;;;5.20;99.90;;;;;;5110491;28;20205;-74
2022/03/16 02:26:43;;;;;;;45.17;31.13;;;5.10;99.90;;;;;;5111815;28;20208;-74
2022/03/16 02:29:10;;;;;;;41.43;31.57;;;5.10;99.90;;;;;;5108296;28;20201;-75
2022/03/16 02:31:36;;;;;;;40.73;31.07;;;5.10;99.90;;;;;;5106365;28;20204;-77
2022/03/16 02:34:03;;;;;;;41.90;30.73;;;5.10;99.90;;;;;;5107653;28;20254;-75
2022/03/16 02:36:30;;;;;;;39.40;29.80;;;5.10;99.90;;;;;;5107166;28;20668;-74
2022/03/16 02:38:56;;;;;;;37.03;29.07;;;5.10;99.90;;;;;;5103032;28;20204;-75
2022/03/16 02:41:24;;;;;;;41.33;29.80;;;5.10;99.90;;;;;;5099176;28;20220;-75
2022/03/16 02:43:52;;;;;;;35.60;27.77;;;5.10;99.90;;;;;;5100863;28;20678;-75
2022/03/16 02:46:19;;;;;;;34.47;27.80;;;5.00;99.90;;;;;;5102185;28;20196;-76
2022/03/16 02:48:45;;;;;;;37.73;28.93;;;5.00;99.90;;;;;;5100818;28;20205;-75
2022/03/16 02:51:12;;;;;;;37.30;28.30;;;5.00;99.90;;;;;;5103144;28;20208;-75
2022/03/16 02:53:39;;;;;;;37.63;28.37;;;5.00;99.90;;;;;;5105919;28;20246;-75
2022/03/16 02:56:07;;;;;;;36.27;28.73;;;5.00;99.90;;;;;;5104304;28;20687;-75
2022/03/16 02:58:35;;;;;;;36.30;28.93;;;5.10;99.90;;;;;;5099652;28;20207;-75
2022/03/16 03:01:04;;;;;;;34.03;27.30;;;5.00;99.90;;;;;;5104262;28;20246;-75
2022/03/16 03:03:30;;;;;;;33.77;26.43;;;5.10;99.90;;;;;;5104132;28;20197;-76
2022/03/16 03:05:57;;;;;;;35.40;27.17;;;5.00;99.90;;;;;;5099719;28;20212;-76
2022/03/16 03:08:23;;;;;;;32.83;25.57;;;5.10;99.90;;;;;;5101260;28;20249;-76
2022/03/16 03:10:50;;;;;;;31.43;25.17;;;5.10;99.90;;;;;;5099291;28;20253;-75
2022/03/16 03:13:17;;;;;;;32.83;25.57;;;5.10;99.90;;;;;;5098282;28;20759;-74
2022/03/16 03:15:47;;;;;;;31.23;25.87;;;5.10;99.90;;;;;;5098261;28;20589;-75
2022/03/16 03:18:14;;;;;;;32.10;26.43;;;5.10;99.90;;;;;;5107043;28;20200;-75
2022/03/16 03:20:40;;;;;;;30.70;25.27;;;5.10;99.90;;;;;;5102555;28;20605;-76
2022/03/16 03:23:07;;;;;;;31.27;24.13;;;5.10;99.90;;;;;;5105072;28;20245;-76
2022/03/16 03:25:34;;;;;;;31.73;24.00;;;5.10;99.90;;;;;;5104556;28;20728;-76
2022/03/16 03:28:01;;;;;;;32.67;25.73;;;5.10;99.90;;;;;;5105149;28;20295;-76
2022/03/16 03:30:28;;;;;;;30.93;24.87;;;5.10;99.90;;;;;;5104731;28;20204;-76
2022/03/16 03:32:56;;;;;;;33.47;25.80;;;5.10;99.90;;;;;;5103680;28;20216;-76
2022/03/16 03:35:23;;;;;;;31.00;24.50;;;5.10;99.90;;;;;;5098774;28;20253;-76
2022/03/16 03:37:51;;;;;;;31.80;24.77;;;5.10;99.90;;;;;;5097119;28;20196;-76
2022/03/16 03:40:17;;;;;;;32.17;25.87;;;5.10;99.90;;;;;;5098012;28;20285;-76
2022/03/16 03:42:44;;;;;;;29.17;23.70;;;5.10;99.90;;;;;;5106066;28;20246;-76
2022/03/16 03:45:11;;;;;;;27.80;22.23;;;5.10;99.90;;;;;;5102763;28;20625;-75
2022/03/16 03:47:37;;;;;;;29.37;23.57;;;5.20;99.90;;;;;;5097513;28;20192;-75
2022/03/16 03:50:06;;;;;;;28.43;23.33;;;5.10;99.90;;;;;;5097453;28;20249;-75
2022/03/16 03:52:33;;;;;;;30.43;24.73;;;5.10;99.90;;;;;;5099840;28;20245;-75
2022/03/16 03:55:00;;;;;;;31.87;24.83;;;5.10;99.90;;;;;;5102777;28;20196;-75
2022/03/16 03:57:26;;;;;;;30.33;25.03;;;5.20;99.90;;;;;;5097672;28;20249;-76
2022/03/16 03:59:53;;;;;;;31.33;24.97;;;5.20;99.90;;;;;;5106575;28;20227;-75
2022/03/16 04:02:19;;;;;;;34.03;26.60;;;5.10;99.90;;;;;;5105850;28;20196;-76
2022/03/16 04:04:46;;;;;;;34.23;27.00;;;5.20;99.90;;;;;;5102109;28;20208;-76
2022/03/16 04:07:14;;;;;;;33.90;26.10;;;5.20;99.90;;;;;;5099292;28;20196;-76
2022/03/16 04:09:41;;;;;;;33.70;25.80;;;5.10;99.90;;;;;;5097612;28;20197;-76
2022/03/16 04:12:09;;;;;;;34.37;25.33;;;5.10;99.90;;;;;;5099347;28;20200;-75
2022/03/16 04:14:35;;;;;;;31.63;24.90;;;5.20;99.90;;;;;;5099690;28;20224;-75
2022/03/16 04:17:02;;;;;;;30.43;25.20;;;5.20;99.90;;;;;;5100485;28;20204;-75
2022/03/16 04:19:29;;;;;;;31.80;24.93;;;5.10;99.90;;;;;;5106485;28;20195;-76
2022/03/16 04:21:56;;;;;;;31.57;25.90;;;5.20;99.90;;;;;;5103720;28;20196;-76
2022/03/16 04:24:24;;;;;;;33.03;25.83;;;5.10;99.90;;;;;;5085868;28;20250;-75
2022/03/16 04:26:50;;;;;;;32.87;25.80;;;5.20;99.90;;;;;;5098266;28;20222;-75
2022/03/16 04:29:17;;;;;;;33.67;26.33;;;5.20;99.90;;;;;;5100699;28;20196;-75
2022/03/16 04:31:44;;;;;;;33.47;26.60;;;5.10;99.90;;;;;;5100303;28;20687;-76
2022/03/16 04:34:10;;;;;;;31.73;24.97;;;5.10;99.90;;;;;;5104921;28;20279;-76
2022/03/16 04:36:37;;;;;;;32.23;25.40;;;5.20;99.90;;;;;;5101328;28;20226;-75
2022/03/16 04:39:04;;;;;;;33.73;26.67;;;5.10;99.90;;;;;;5101326;28;20451;-76
2022/03/16 04:41:32;;;;;;;32.37;25.70;;;5.10;99.90;;;;;;5102791;28;20258;-75
2022/03/16 04:43:59;;;;;;;33.10;25.30;;;5.20;99.90;;;;;;5103330;28;20204;-75
2022/03/16 04:46:25;;;;;;;31.77;24.93;;;5.20;99.90;;;;;;5099366;28;20196;-75
2022/03/16 04:48:52;;;;;;;32.97;24.80;;;5.10;99.90;;;;;;5100012;28;20724;-76
2022/03/16 04:51:19;;;;;;;29.70;24.60;;;5.20;99.90;;;;;;5098969;28;20655;-75
2022/03/16 04:53:45;;;;;;;32.33;26.00;;;5.10;99.90;;;;;;5101492;28;20231;-75
2022/03/16 04:56:12;;;;;;;31.13;24.83;;;5.20;99.90;;;;;;5100064;28;20204;-75
2022/03/16 04:58:40;;;;;;;29.80;23.57;;;5.10;99.90;;;;;;5099106;28;20196;-75
2022/03/16 05:01:07;;;;;;;32.20;24.20;;;5.10;99.90;;;;;;5101462;28;20265;-76
2022/03/16 05:03:35;;;;;;;29.07;23.73;;;5.10;99.90;;;;;;5096667;28;20201;-76
2022/03/16 05:06:02;;;;;;;29.70;23.80;;;5.10;99.90;;;;;;5099360;28;20674;-76
2022/03/16 05:08:28;;;;;;;28.77;23.23;;;5.00;99.90;;;;;;5096382;28;20253;-75
2022/03/16 05:10:55;;;;;;;30.53;24.10;;;4.90;99.90;;;;;;5096054;28;20200;-75
2022/03/16 05:13:22;;;;;;;29.37;23.73;;;4.70;99.90;;;;;;5097682;28;20212;-76
2022/03/16 05:15:50;;;;;;;31.03;24.20;;;4.60;99.90;;;;;;5098726;28;20196;-76
2022/03/16 05:18:17;;;;;;;31.57;24.50;;;4.40;99.90;;;;;;5099614;28;20200;-75
2022/03/16 05:20:44;;;;;;;34.53;24.93;;;4.30;99.90;;;;;;5099617;28;20202;-75
2022/03/16 05:23:10;;;;;;;34.43;25.40;;;4.20;99.90;;;;;;5100193;28;20200;-75
2022/03/16 05:25:37;;;;;;;35.87;26.37;;;4.20;99.90;;;;;;5101854;28;20220;-75
2022/03/16 05:28:04;;;;;;;32.37;24.73;;;4.10;99.90;;;;;;5100610;28;20681;-75
2022/03/16 05:30:31;;;;;;;33.43;25.20;;;4.00;99.90;;;;;;5100642;28;20196;-75
2022/03/16 05:33:01;;;;;;;36.00;26.10;;;4.00;99.90;;;;;;5100682;28;20215;-75
2022/03/16 05:35:28;;;;;;;36.63;26.90;;;4.00;99.90;;;;;;5099624;28;20208;-75
2022/03/16 05:37:55;;;;;;;38.00;27.07;;;4.10;99.90;;;;;;5096010;28;20199;-75
2022/03/16 05:40:22;;;;;;;39.53;27.33;;;4.10;99.90;;;;;;5097456;28;20224;-75
2022/03/16 05:42:49;;;;;;;37.67;28.17;;;4.10;99.90;;;;;;5096959;28;20249;-76
2022/03/16 05:45:16;;;;;;;39.27;27.97;;;4.20;99.90;;;;;;5095898;28;20203;-75
2022/03/16 05:47:42;;;;;;;37.17;27.70;;;4.20;99.90;;;;;;5097460;28;20196;-76
2022/03/16 05:50:10;;;;;;;37.83;27.67;;;4.20;99.90;;;;;;5095151;28;20681;-75
2022/03/16 05:52:41;;;;;;;39.70;27.77;;;4.30;99.90;;;;;;5095327;28;20231;-76
2022/03/16 05:55:09;;;;;;;38.27;27.57;;;4.40;99.90;;;;;;5098017;28;20228;-76
2022/03/16 05:57:37;;;;;;;36.17;26.60;;;4.40;99.90;;;;;;5095610;28;20559;-74
2022/03/16 06:00:05;;;;;;;42.00;29.17;;;4.50;99.90;;;;;;5100218;28;20283;-75
2022/03/16 06:02:32;;;;;;;40.57;30.47;;;4.60;99.90;;;;;;5099513;28;20207;-76
2022/03/16 06:04:59;;;;;;;40.27;30.17;;;4.60;99.90;;;;;;5102113;28;20200;-75
2022/03/16 06:07:27;;;;;;;39.50;29.60;;;4.60;99.90;;;;;;5096943;28;20715;-77
2022/03/16 06:09:53;;;;;;;37.90;28.63;;;4.60;99.90;;;;;;5097121;28;20222;-76
2022/03/16 06:12:20;;;;;;;40.80;29.20;;;4.60;99.90;;;;;;5100950;28;20250;-76
2022/03/16 06:14:47;;;;;;;38.20;28.87;;;4.50;99.90;;;;;;5099822;28;20270;-76
2022/03/16 06:17:13;;;;;;;39.80;29.63;;;4.60;99.90;;;;;;5095991;28;20196;-75
2022/03/16 06:19:40;;;;;;;41.50;30.13;;;4.60;99.90;;;;;;5096405;28;20222;-75
2022/03/16 06:22:07;;;;;;;41.03;29.90;;;4.60;99.90;;;;;;5098616;28;20203;-76
2022/03/16 06:24:34;;;;;;;40.90;29.80;;;4.70;99.90;;;;;;5101122;28;20196;-76
2022/03/16 06:27:01;;;;;;;41.10;30.60;;;4.70;99.90;;;;;;5102256;28;20245;-75
2022/03/16 06:29:28;;;;;;;44.27;30.90;;;4.70;99.90;;;;;;5101192;28;20229;-76
2022/03/16 06:31:54;;;;;;;44.03;30.43;;;4.80;99.90;;;;;;5101286;28;20200;-76
2022/03/16 06:34:21;;;;;;;41.63;31.03;;;4.80;99.90;;;;;;5103250;28;20575;-76
2022/03/16 06:36:48;;;;;;;43.57;30.60;;;4.90;99.90;;;;;;5099224;28;20572;-76
2022/03/16 06:39:15;;;;;;;43.03;30.50;;;4.90;99.90;;;;;;5104336;28;20245;-77
2022/03/16 06:41:43;;;;;;;41.20;30.70;;;5.00;99.90;;;;;;5105962;28;20228;-76
2022/03/16 06:44:11;;;;;;;39.67;30.27;;;5.10;99.90;;;;;;5108049;28;20197;-76
2022/03/16 06:46:38;;;;;;;37.33;29.37;;;5.10;99.90;;;;;;5108416;28;20204;-76
2022/03/16 06:49:05;;;;;;;39.13;30.03;;;5.20;99.90;;;;;;5107104;28;20316;-78
2022/03/16 06:51:31;;;;;;;35.20;27.20;;;5.20;99.90;;;;;;5105734;28;20196;-76
2022/03/16 06:53:58;;;;;;;35.93;27.77;;;5.30;99.90;;;;;;5106741;28;20220;-76
2022/03/16 06:56:25;;;;;;;33.23;26.97;;;5.40;99.90;;;;;;5105093;28;20200;-76
2022/03/16 06:58:53;;;;;;;35.33;26.83;;;5.50;99.90;;;;;;5104985;28;20196;-75
2022/03/16 07:01:19;;;;;;;31.37;25.77;;;5.60;99.90;;;;;;5105291;28;20196;-76
2022/03/16 07:03:46;;;;;;;30.57;25.27;;;5.60;99.90;;;;;;5104315;28;20200;-76
2022/03/16 07:06:13;;;;;;;29.10;24.00;;;5.70;99.90;;;;;;5102055;28;20203;-76
2022/03/16 07:08:39;;;;;;;25.70;22.47;;;5.70;99.90;;;;;;5100561;28;20200;-76
2022/03/16 07:11:07;;;;;;;27.80;22.70;;;5.80;99.90;;;;;;5099746;28;20283;-77
2022/03/16 07:13:34;;;;;;;27.87;22.83;;;5.90;99.90;;;;;;5099450;28;20701;-77
2022/03/16 07:16:02;;;;;;;25.03;21.03;;;6.10;99.90;;;;;;5097823;28;20196;-77
2022/03/16 07:18:29;;;;;;;25.73;21.20;;;6.20;99.90;;;;;;5096438;28;20200;-74
2022/03/16 07:20:55;;;;;;;22.87;19.80;;;6.40;99.90;;;;;;5095962;28;20197;-76
2022/03/16 07:23:22;;;;;;;23.07;19.50;;;6.50;99.90;;;;;;5095258;28;20720;-75
2022/03/16 07:25:49;;;;;;;22.87;19.97;;;6.60;99.90;;;;;;5095084;28;20204;-74
2022/03/16 07:28:17;;;;;;;23.47;20.30;;;6.70;99.90;;;;;;5095135;28;20230;-76
2022/03/16 07:30:45;;;;;;;21.17;18.87;;;6.80;99.90;;;;;;5095194;28;20245;-76
2022/03/16 07:33:13;;;;;;;19.73;17.63;;;6.90;99.90;;;;;;5094955;28;20675;-75
2022/03/16 07:35:41;;;;;;;21.20;18.17;;;6.90;99.90;;;;;;5094867;28;20235;-76
2022/03/16 07:38:08;;;;;;;21.17;18.67;;;7.10;99.90;;;;;;5094659;28;20204;-77
2022/03/16 07:40:36;;;;;;;19.20;17.23;;;7.30;99.90;;;;;;5094693;28;20255;-76
2022/03/16 07:43:03;;;;;;;19.30;17.30;;;7.30;99.90;;;;;;5094928;28;20232;-76
2022/03/16 07:45:30;;;;;;;19.70;17.23;;;7.40;99.90;;;;;;5095027;28;20204;-76
2022/03/16 07:47:56;;;;;;;18.67;16.67;;;7.40;99.90;;;;;;5094359;28;20204;-74
2022/03/16 07:50:26;;;;;;;19.77;17.30;;;7.40;99.90;;;;;;5094696;28;20283;-76
2022/03/16 07:52:53;;;;;;;19.30;17.20;;;7.50;99.90;;;;;;5094670;28;20202;-77
2022/03/16 07:55:19;;;;;;;18.63;16.63;;;7.60;99.90;;;;;;5094638;28;20315;-75
2022/03/16 07:57:46;;;;;;;19.13;16.70;;;7.70;99.90;;;;;;5094449;28;20204;-77
2022/03/16 08:00:15;;;;;;;21.77;17.10;;;7.80;99.90;;;;;;5094830;28;20566;-77
2022/03/16 08:02:43;;;;;;;18.57;15.87;;;7.90;99.90;;;;;;5094866;28;20196;-74
2022/03/16 08:05:10;;;;;;;17.70;15.87;;;7.90;99.90;;;;;;5094310;28;20204;-76
2022/03/16 08:07:38;;;;;;;18.87;16.87;;;8.00;99.90;;;;;;5094500;28;20230;-76
2022/03/16 08:10:06;;;;;;;18.30;15.57;;;8.10;99.90;;;;;;5094425;28;20277;-74
2022/03/16 08:12:33;;;;;;;19.57;16.77;;;8.30;99.90;;;;;;5094234;28;20196;-74
2022/03/16 08:15:00;;;;;;;19.83;17.40;;;8.40;99.90;;;;;;5094039;28;20224;-75
2022/03/16 08:17:30;;;;;;;18.03;16.13;;;8.50;99.90;;;;;;5094240;28;20203;-74
2022/03/16 08:19:57;;;;;;;18.47;16.47;;;8.50;99.90;;;;;;5094045;28;20251;-75
2022/03/16 08:22:28;;;;;;;17.17;15.37;;;8.50;99.90;;;;;;5094064;28;20656;-75
2022/03/16 08:24:57;;;;;;;25.43;16.03;;;8.70;99.90;;;;;;5094202;28;20286;-75
2022/03/16 08:27:25;;;;;;;18.90;16.33;;;8.80;99.90;;;;;;5094184;28;20222;-75
2022/03/16 08:29:51;;;;;;;17.13;15.40;;;9.10;99.90;;;;;;5094107;28;20208;-75
2022/03/16 08:32:18;;;;;;;17.60;15.80;;;9.20;99.90;;;;;;5093769;28;20240;-75
2022/03/16 08:34:46;;;;;;;18.13;16.00;;;9.20;99.90;;;;;;5093667;28;20699;-75
2022/03/16 08:37:13;;;;;;;17.40;15.60;;;9.10;99.90;;;;;;5093741;28;20590;-75
2022/03/16 08:39:40;;;;;;;18.50;16.50;;;9.40;99.90;;;;;;5093656;28;20262;-75
2022/03/16 08:42:10;;;;;;;19.53;15.40;;;9.60;99.90;;;;;;5093807;28;20295;-75
2022/03/16 08:44:37;;;;;;;18.87;15.50;;;9.60;99.90;;;;;;5093696;28;20204;-75
2022/03/16 08:47:05;;;;;;;17.63;15.70;;;9.60;99.90;;;;;;5093591;28;20663;-76
2022/03/16 08:49:31;;;;;;;16.87;15.07;;;9.70;99.90;;;;;;5093797;28;20197;-76
2022/03/16 08:51:58;;;;;;;17.03;15.33;;;9.80;99.90;;;;;;5093884;28;20204;-75
2022/03/16 08:54:25;;;;;;;19.10;14.93;;;9.70;99.90;;;;;;5093595;28;20246;-75
2022/03/16 08:56:52;;;;;;;19.10;15.90;;;9.80;99.90;;;;;;5093498;28;20717;-75
2022/03/16 08:59:21;;;;;;;16.37;14.67;;;9.70;99.90;;;;;;5093282;28;20304;-75
2022/03/16 09:01:47;;;;;;;16.77;15.00;;;9.80;99.90;;;;;;5093184;28;20224;-75
2022/03/16 09:04:14;;;;;;;17.60;15.20;;;9.90;99.90;;;;;;5093538;28;20197;-76
2022/03/16 09:06:41;;;;;;;19.10;15.53;;;10.00;99.90;;;;;;5093286;28;20193;-75
2022/03/16 09:09:08;;;;;;;18.13;16.07;;;10.00;99.90;;;;;;5093210;28;20200;-76
2022/03/16 09:11:35;;;;;;;18.03;16.00;;;10.00;99.90;;;;;;5093180;28;20193;-76
2022/03/16 09:14:04;;;;;;;21.23;16.60;;;9.80;99.90;;;;;;5093206;28;20199;-76
2022/03/16 09:16:32;;;;;;;17.07;15.27;;;9.90;99.90;;;;;;5093153;28;20224;-76
2022/03/16 09:18:59;;;;;;;17.70;15.90;;;10.10;99.90;;;;;;5093109;28;20204;-76
2022/03/16 09:21:26;;;;;;;17.90;16.00;;;10.20;99.90;;;;;;5093293;28;20200;-76
2022/03/16 09:23:54;;;;;;;17.87;15.93;;;10.20;99.90;;;;;;5092981;28;20287;-76
2022/03/16 09:26:21;;;;;;;23.47;15.77;;;10.30;99.90;;;;;;5092846;28;20206;-75
2022/03/16 09:28:48;;;;;;;19.57;15.87;;;10.30;99.90;;;;;;5092842;28;20200;-76
2022/03/16 09:31:15;;;;;;;17.50;15.47;;;10.80;99.90;;;;;;5093103;28;20250;-76
2022/03/16 09:33:43;;;;;;;17.77;15.97;;;10.80;99.90;;;;;;5093028;28;20601;-76
2022/03/16 09:36:10;;;;;;;17.30;15.40;;;10.80;99.90;;;;;;5092882;28;20224;-76
2022/03/16 09:38:37;;;;;;;17.77;15.67;;;10.90;99.90;;;;;;5092966;28;20204;-76
2022/03/16 09:41:04;;;;;;;18.07;16.13;;;11.10;99.90;;;;;;5092516;28;20228;-76
2022/03/16 09:43:32;;;;;;;18.13;15.43;;;11.20;99.90;;;;;;5092893;28;20196;-76
2022/03/16 09:46:11;;;;;;;17.97;15.27;;;11.40;99.90;;;;;;5092848;28;20227;-76
2022/03/16 09:48:39;;;;;;;17.97;15.37;;;11.60;99.90;;;;;;5092872;28;20200;-76
2022/03/16 09:51:07;;;;;;;17.40;15.57;;;11.40;99.90;;;;;;5092693;28;20200;-76
2022/03/16 09:53:34;;;;;;;18.37;16.10;;;11.50;99.90;;;;;;5092762;28;20192;-76
2022/03/16 09:56:01;;;;;;;17.83;15.93;;;11.70;99.90;;;;;;5092722;28;20227;-76
2022/03/16 09:58:28;;;;;;;21.00;16.27;;;11.50;99.90;;;;;;5092525;28;20286;-77
2022/03/16 10:00:56;;;;;;;17.70;15.70;;;12.00;99.90;;;;;;5092773;28;20202;-77
2022/03/16 10:03:25;;;;;;;17.27;15.57;;;12.00;99.90;;;;;;5093352;28;20209;-77
2022/03/16 10:05:51;;;;;;;17.40;15.50;;;12.40;99.90;;;;;;5092490;28;20196;-76
2022/03/16 10:08:30;;;;;;;18.60;16.20;;;12.70;99.90;;;;;;5092764;28;20201;-77
2022/03/16 10:13:54;;;;;;;17.00;15.40;;;13.30;99.90;;;;;;5096650;28;20195;-77
2022/03/16 10:16:21;;;;;;;17.13;15.48;;;13.40;99.90;;;;;;5096241;28;20250;-77
2022/03/16 10:18:54;;;;;;;17.52;15.30;;;13.70;99.90;;;;;;5096434;28;20196;-77
2022/03/16 10:21:22;;;;;;;17.63;15.70;;;13.80;99.90;;;;;;5096402;28;20556;-77
2022/03/16 10:23:50;;;;;;;18.02;16.33;;;13.80;99.90;;;;;;5096487;28;20196;-77
2022/03/16 10:26:18;;;;;;;17.60;15.90;;;13.60;99.90;;;;;;5096390;28;20649;-77
2022/03/16 10:28:46;;;;;;;18.27;16.48;;;14.20;99.90;;;;;;5096185;28;20532;-76
2022/03/16 10:31:15;;;;;;;18.00;16.15;;;14.80;99.90;;;;;;5096381;28;20199;-77
2022/03/16 10:33:46;;;;;;;16.58;15.07;;;14.90;99.90;;;;;;5096206;28;20295;-77
2022/03/16 10:36:15;;;;;;;18.25;16.55;;;14.90;99.90;;;;;;5096208;28;20224;-76
2022/03/16 10:38:45;;;;;;;17.95;16.23;;;15.30;99.90;;;;;;5095985;28;20242;-77
2022/03/16 10:46:46;;;;;;;15.43;14.02;;;16.00;96.40;;;;;;5096080;28;20211;-77
2022/03/16 10:49:16;;;;;;;17.73;16.02;;;16.10;94.60;;;;;;5095760;28;20196;-78
2022/03/16 10:51:44;;;;;;;17.23;15.63;;;15.80;94.40;;;;;;5096098;28;20196;-78
2022/03/16 10:54:14;;;;;;;17.13;15.60;;;15.70;93.90;;;;;;5095744;28;20261;-77
2022/03/16 10:56:44;;;;;;;18.40;16.60;;;15.10;90.90;;;;;;5095656;28;20232;-77
2022/03/16 10:59:11;;;;;;;18.20;16.08;;;14.60;93.40;;;;;;5095500;28;20245;-76
2022/03/16 11:01:39;;;;;;;17.23;15.60;;;15.00;94.10;;;;;;5095669;28;20393;-77
2022/03/16 11:04:07;;;;;;;17.60;15.93;;;15.00;94.00;;;;;;5095535;28;20226;-77
2022/03/16 11:06:35;;;;;;;18.88;17.08;;;14.80;91.80;;;;;;5095383;28;20235;-78
2022/03/16 11:09:03;;;;;;;18.52;16.65;;;15.30;92.70;;;;;;5095584;28;20287;-77
2022/03/16 11:14:17;;;;;;;17.75;16.05;;;16.20;88.90;;;;;;5095405;28;20667;-77
2022/03/16 11:16:46;;;;;;;16.80;15.20;;;16.90;89.00;;;;;;5095289;28;20216;-78
2022/03/16 11:19:18;;;;;;;17.75;15.88;;;17.90;82.10;;;;;;5095429;28;20222;-77
2022/03/16 11:21:54;;;;;;;16.23;14.73;;;18.10;72.80;;;;;;5095381;28;20196;-77
2022/03/16 11:24:24;;;;;;;16.73;15.10;;;18.90;68.10;;;;;;5094693;28;20284;-77
2022/03/16 11:27:25;;;;;;;17.27;15.77;;;18.80;62.60;;;;;;5095039;28;20192;-78
2022/03/16 11:30:12;;;;;;;16.48;14.98;;;18.20;59.40;;;;;;5095188;28;20196;-77
2022/03/16 11:32:40;;;;;;;16.40;14.93;;;18.60;56.70;;;;;;5094261;28;20698;-77
2022/03/16 11:35:12;;;;;;;18.00;16.25;;;18.20;56.10;;;;;;5094916;28;20253;-76
2022/03/16 11:37:42;;;;;;;16.63;15.20;;;18.00;55.90;;;;;;5094777;28;20283;-77
2022/03/16 11:40:12;;;;;;;17.60;15.95;;;17.60;58.30;;;;;;5094744;28;20324;-78
2022/03/16 11:42:44;;;;;;;16.83;15.13;;;18.10;57.90;;;;;;5094632;28;20192;-78
2022/03/16 11:45:37;;;;;;;16.73;15.23;;;18.80;56.10;;;;;;5094727;28;20200;-77
2022/03/16 11:48:40;;;;;;;17.60;16.10;;;19.70;54.00;;;;;;5094594;28;20287;-77
2022/03/16 11:51:21;;;;;;;16.38;14.98;;;20.20;49.20;;;;;;5012343;28;20206;-78
2022/03/16 11:54:07;;;;;;;17.52;15.93;;;20.30;47.90;;;;;;5086350;28;20207;-77
2022/03/16 11:56:57;;;;;;;18.08;15.55;;;20.80;48.90;;;;;;5094346;28;20224;-78
2022/03/16 11:59:35;;;;;;;16.08;14.77;;;21.50;45.40;;;;;;5094591;28;20196;-77
2022/03/16 12:02:25;;;;;;;16.50;14.82;;;22.10;42.10;;;;;;5094410;28;20222;-76
2022/03/16 12:05:00;;;;;;;15.80;14.35;;;22.40;39.20;;;;;;5094337;28;20667;-78
2022/03/16 12:07:30;;;;;;;16.20;14.77;;;22.30;38.20;;;;;;5094104;28;20196;-77
2022/03/16 12:10:03;;;;;;;15.18;13.88;;;22.20;37.40;;;;;;5094754;28;20250;-78
2022/03/16 12:15:28;;;;;;;15.98;14.57;;;22.20;34.10;;;;;;5096563;28;20229;-77
2022/03/16 12:18:34;;;;;;;15.23;13.77;;;22.30;34.60;;;;;;5097302;28;20199;-77
2022/03/16 12:21:11;;;;;;;15.02;13.70;;;22.80;34.80;;;;;;5094131;28;20200;-77
2022/03/16 12:28:55;;;;;;;14.75;13.45;;;24.00;31.30;;;;;;5049688;28;20277;-78
2022/03/16 12:29:31;;;;;;;14.65;13.45;;;25.30;29.50;;;;;;5093804;28;20662;-78
2022/03/16 12:32:00;;;;;;;15.23;14.07;;;25.10;28.20;;;;;;5093845;28;20257;-78
2022/03/16 12:34:29;;;;;;;15.35;14.13;;;25.30;27.00;;;;;;5093519;28;20196;-77
2022/03/16 12:36:59;;;;;;;15.45;14.07;;;25.40;26.20;;;;;;5093611;28;20318;-78
2022/03/16 12:39:27;;;;;;;14.85;13.65;;;25.40;27.10;;;;;;5093825;28;20283;-77
2022/03/16 12:44:45;;;;;;;15.00;13.80;;;26.40;25.40;;;;;;5093911;28;20306;-77
2022/03/16 12:47:19;;;;;;;14.77;13.52;;;26.30;24.80;;;;;;5093856;28;20738;-77
2022/03/16 12:49:46;;;;;;;14.70;13.50;;;26.50;24.20;;;;;;5096772;28;20292;-77
2022/03/16 12:52:14;;;;;;;15.63;14.27;;;26.60;23.70;;;;;;5098485;28;20196;-77
2022/03/16 12:54:41;;;;;;;15.60;14.32;;;27.10;23.40;;;;;;5097720;28;20252;-79
2022/03/16 12:57:11;;;;;;;14.35;13.25;;;27.20;23.10;;;;;;5093621;28;20223;-77
2022/03/16 12:59:42;;;;;;;15.18;13.98;;;27.40;23.00;;;;;;5093528;28;20655;-76